sensor_id;sensor_type;location;lat;lon;timestamp;P1;durP1;ratioP1;P2;durP2;ratioP2
44197;SDS011;30157;55.512;37.764;2023-03-25T00:01:02;10.68;;;6.93;;
44197;SDS011;30157;55.512;37.764;2023-03-25T00:03:34;9.55;;;6.30;;
44197;SDS011;30157;55.512;37.764;2023-03-25T00:06:06;10.55;;;6.90;;
44197;SDS011;30157;55.512;37.764;2023-03-25T00:08:33;11.43;;;6.88;;
44197;SDS011;30157;55.512;37.764;2023-03-25T00:10:59;9.60;;;6.53;;
44197;SDS011;30157;55.512;37.764;2023-03-25T00:13:27;11.18;;;6.32;;
44197;SDS011;30157;55.512;37.764;2023-03-25T00:15:56;8.95;;;6.10;;
44197;SDS011;30157;55.512;37.764;2023-03-25T00:18:23;10.63;;;7.03;;
44197;SDS011;30157;55.512;37.764;2023-03-25T00:20:53;9.63;;;6.35;;
44197;SDS011;30157;55.512;37.764;2023-03-25T00:23:20;9.98;;;6.25;;
44197;SDS011;30157;55.512;37.764;2023-03-25T00:25:47;9.23;;;5.85;;
44197;SDS011;30157;55.512;37.764;2023-03-25T00:28:14;10.50;;;6.72;;
44197;SDS011;30157;55.512;37.764;2023-03-25T00:30:41;10.57;;;6.10;;
44197;SDS011;30157;55.512;37.764;2023-03-25T00:33:17;10.48;;;6.13;;
44197;SDS011;30157;55.512;37.764;2023-03-25T00:35:43;9.52;;;6.20;;
44197;SDS011;30157;55.512;37.764;2023-03-25T00:38:12;7.72;;;5.30;;
44197;SDS011;30157;55.512;37.764;2023-03-25T00:40:39;8.40;;;5.97;;
44197;SDS011;30157;55.512;37.764;2023-03-25T00:43:05;10.07;;;5.95;;
44197;SDS011;30157;55.512;37.764;2023-03-25T00:45:31;9.82;;;5.93;;
44197;SDS011;30157;55.512;37.764;2023-03-25T00:47:57;8.73;;;6.07;;
44197;SDS011;30157;55.512;37.764;2023-03-25T00:50:23;10.23;;;5.82;;
44197;SDS011;30157;55.512;37.764;2023-03-25T00:52:49;8.00;;;5.82;;
44197;SDS011;30157;55.512;37.764;2023-03-25T00:55:16;8.45;;;5.32;;
44197;SDS011;30157;55.512;37.764;2023-03-25T00:57:44;8.38;;;5.40;;
44197;SDS011;30157;55.512;37.764;2023-03-25T01:00:12;11.35;;;6.70;;
44197;SDS011;30157;55.512;37.764;2023-03-25T01:02:40;8.80;;;5.88;;
44197;SDS011;30157;55.512;37.764;2023-03-25T01:05:06;9.10;;;5.60;;
44197;SDS011;30157;55.512;37.764;2023-03-25T01:07:36;8.13;;;5.47;;
44197;SDS011;30157;55.512;37.764;2023-03-25T01:10:05;9.00;;;5.65;;
44197;SDS011;30157;55.512;37.764;2023-03-25T01:12:35;7.63;;;5.25;;
44197;SDS011;30157;55.512;37.764;2023-03-25T01:15:01;9.95;;;6.22;;
44197;SDS011;30157;55.512;37.764;2023-03-25T01:17:28;9.48;;;5.53;;
44197;SDS011;30157;55.512;37.764;2023-03-25T01:19:55;9.77;;;5.78;;
44197;SDS011;30157;55.512;37.764;2023-03-25T01:22:20;7.45;;;5.13;;
44197;SDS011;30157;55.512;37.764;2023-03-25T01:24:46;8.05;;;5.18;;
44197;SDS011;30157;55.512;37.764;2023-03-25T01:27:12;9.77;;;6.28;;
44197;SDS011;30157;55.512;37.764;2023-03-25T01:29:38;8.80;;;5.47;;
44197;SDS011;30157;55.512;37.764;2023-03-25T01:32:04;9.20;;;5.63;;
44197;SDS011;30157;55.512;37.764;2023-03-25T01:34:32;9.50;;;5.60;;
44197;SDS011;30157;55.512;37.764;2023-03-25T01:37:03;7.95;;;5.32;;
44197;SDS011;30157;55.512;37.764;2023-03-25T01:39:29;10.18;;;6.28;;
44197;SDS011;30157;55.512;37.764;2023-03-25T01:41:54;9.30;;;6.53;;
44197;SDS011;30157;55.512;37.764;2023-03-25T01:46:49;9.05;;;6.20;;
44197;SDS011;30157;55.512;37.764;2023-03-25T01:49:21;10.10;;;6.40;;
44197;SDS011;30157;55.512;37.764;2023-03-25T01:51:55;8.38;;;5.93;;
44197;SDS011;30157;55.512;37.764;2023-03-25T01:54:27;8.45;;;5.50;;
44197;SDS011;30157;55.512;37.764;2023-03-25T01:56:53;9.73;;;5.90;;
44197;SDS011;30157;55.512;37.764;2023-03-25T01:59:21;8.43;;;5.70;;
44197;SDS011;30157;55.512;37.764;2023-03-25T02:01:49;8.88;;;5.88;;
44197;SDS011;30157;55.512;37.764;2023-03-25T02:04:54;8.40;;;5.82;;
44197;SDS011;30157;55.512;37.764;2023-03-25T02:07:27;10.07;;;5.72;;
44197;SDS011;30157;55.512;37.764;2023-03-25T02:09:58;7.45;;;5.55;;
44197;SDS011;30157;55.512;37.764;2023-03-25T02:12:28;9.55;;;6.18;;
44197;SDS011;30157;55.512;37.764;2023-03-25T02:14:54;9.05;;;6.03;;
44197;SDS011;30157;55.512;37.764;2023-03-25T02:26:04;10.05;;;7.20;;
44197;SDS011;30157;55.512;37.764;2023-03-25T02:42:40;10.82;;;6.53;;
44197;SDS011;30157;55.512;37.764;2023-03-25T02:45:24;10.65;;;6.15;;
44197;SDS011;30157;55.512;37.764;2023-03-25T02:47:52;9.07;;;5.68;;
44197;SDS011;30157;55.512;37.764;2023-03-25T02:50:39;11.07;;;6.30;;
44197;SDS011;30157;55.512;37.764;2023-03-25T02:53:12;11.52;;;6.85;;
44197;SDS011;30157;55.512;37.764;2023-03-25T02:55:41;10.20;;;5.93;;
44197;SDS011;30157;55.512;37.764;2023-03-25T02:58:09;8.98;;;6.13;;
44197;SDS011;30157;55.512;37.764;2023-03-25T03:00:39;11.13;;;6.10;;
44197;SDS011;30157;55.512;37.764;2023-03-25T03:03:05;9.55;;;6.43;;
44197;SDS011;30157;55.512;37.764;2023-03-25T03:05:34;9.23;;;5.78;;
44197;SDS011;30157;55.512;37.764;2023-03-25T03:13:51;9.75;;;5.10;;
44197;SDS011;30157;55.512;37.764;2023-03-25T03:16:12;7.25;;;5.22;;
44197;SDS011;30157;55.512;37.764;2023-03-25T03:18:48;9.18;;;5.28;;
44197;SDS011;30157;55.512;37.764;2023-03-25T03:21:25;8.98;;;5.30;;
44197;SDS011;30157;55.512;37.764;2023-03-25T03:24:13;8.55;;;5.40;;
44197;SDS011;30157;55.512;37.764;2023-03-25T03:29:30;11.23;;;6.05;;
44197;SDS011;30157;55.512;37.764;2023-03-25T03:34:53;8.55;;;5.65;;
44197;SDS011;30157;55.512;37.764;2023-03-25T03:37:40;7.15;;;4.47;;
44197;SDS011;30157;55.512;37.764;2023-03-25T03:40:14;7.97;;;4.63;;
44197;SDS011;30157;55.512;37.764;2023-03-25T03:42:44;7.47;;;4.78;;
44197;SDS011;30157;55.512;37.764;2023-03-25T03:45:36;6.78;;;4.20;;
44197;SDS011;30157;55.512;37.764;2023-03-25T03:48:08;6.90;;;4.72;;
44197;SDS011;30157;55.512;37.764;2023-03-25T03:50:38;7.10;;;4.22;;
44197;SDS011;30157;55.512;37.764;2023-03-25T03:53:14;6.03;;;4.10;;
44197;SDS011;30157;55.512;37.764;2023-03-25T03:56:02;7.97;;;4.05;;
44197;SDS011;30157;55.512;37.764;2023-03-25T03:58:34;7.65;;;4.63;;
44197;SDS011;30157;55.512;37.764;2023-03-25T04:03:39;6.00;;;4.43;;
44197;SDS011;30157;55.512;37.764;2023-03-25T04:06:15;7.80;;;4.25;;
44197;SDS011;30157;55.512;37.764;2023-03-25T04:08:51;5.88;;;4.13;;
44197;SDS011;30157;55.512;37.764;2023-03-25T04:11:35;6.13;;;3.83;;
44197;SDS011;30157;55.512;37.764;2023-03-25T04:14:14;6.90;;;4.30;;
44197;SDS011;30157;55.512;37.764;2023-03-25T04:16:40;6.78;;;4.57;;
44197;SDS011;30157;55.512;37.764;2023-03-25T04:19:10;6.57;;;4.30;;
44197;SDS011;30157;55.512;37.764;2023-03-25T04:21:48;5.55;;;4.10;;
44197;SDS011;30157;55.512;37.764;2023-03-25T04:24:21;5.43;;;3.70;;
44197;SDS011;30157;55.512;37.764;2023-03-25T04:26:48;6.28;;;4.35;;
44197;SDS011;30157;55.512;37.764;2023-03-25T04:29:13;6.07;;;3.72;;
44197;SDS011;30157;55.512;37.764;2023-03-25T04:31:39;5.70;;;4.30;;
44197;SDS011;30157;55.512;37.764;2023-03-25T04:34:14;5.07;;;3.72;;
44197;SDS011;30157;55.512;37.764;2023-03-25T04:36:39;6.03;;;4.38;;
44197;SDS011;30157;55.512;37.764;2023-03-25T04:39:07;6.43;;;4.18;;
44197;SDS011;30157;55.512;37.764;2023-03-25T04:41:36;6.55;;;4.15;;
44197;SDS011;30157;55.512;37.764;2023-03-25T04:44:02;5.90;;;4.20;;
44197;SDS011;30157;55.512;37.764;2023-03-25T04:46:32;6.28;;;4.13;;
44197;SDS011;30157;55.512;37.764;2023-03-25T04:48:58;5.45;;;3.85;;
44197;SDS011;30157;55.512;37.764;2023-03-25T04:51:27;5.18;;;3.65;;
44197;SDS011;30157;55.512;37.764;2023-03-25T04:53:54;7.40;;;4.60;;
44197;SDS011;30157;55.512;37.764;2023-03-25T04:56:20;8.02;;;4.25;;
44197;SDS011;30157;55.512;37.764;2023-03-25T04:58:47;6.90;;;4.40;;
44197;SDS011;30157;55.512;37.764;2023-03-25T05:01:34;7.55;;;4.60;;
44197;SDS011;30157;55.512;37.764;2023-03-25T05:04:03;7.07;;;4.82;;
44197;SDS011;30157;55.512;37.764;2023-03-25T05:06:35;7.88;;;5.38;;
44197;SDS011;30157;55.512;37.764;2023-03-25T05:09:07;6.47;;;4.75;;
44197;SDS011;30157;55.512;37.764;2023-03-25T05:11:37;7.45;;;5.22;;
44197;SDS011;30157;55.512;37.764;2023-03-25T05:14:10;6.68;;;4.70;;
44197;SDS011;30157;55.512;37.764;2023-03-25T05:16:37;9.43;;;6.18;;
44197;SDS011;30157;55.512;37.764;2023-03-25T05:19:03;8.88;;;5.38;;
44197;SDS011;30157;55.512;37.764;2023-03-25T05:21:31;7.00;;;4.80;;
44197;SDS011;30157;55.512;37.764;2023-03-25T05:24:00;8.50;;;5.32;;
44197;SDS011;30157;55.512;37.764;2023-03-25T05:26:27;7.22;;;5.15;;
44197;SDS011;30157;55.512;37.764;2023-03-25T05:29:02;9.07;;;5.97;;
44197;SDS011;30157;55.512;37.764;2023-03-25T05:31:29;7.38;;;5.00;;
44197;SDS011;30157;55.512;37.764;2023-03-25T05:33:55;6.90;;;5.22;;
44197;SDS011;30157;55.512;37.764;2023-03-25T05:36:21;7.28;;;5.32;;
44197;SDS011;30157;55.512;37.764;2023-03-25T05:38:52;7.95;;;6.13;;
44197;SDS011;30157;55.512;37.764;2023-03-25T05:41:19;8.25;;;5.78;;
44197;SDS011;30157;55.512;37.764;2023-03-25T05:43:47;9.68;;;5.97;;
44197;SDS011;30157;55.512;37.764;2023-03-25T05:46:18;9.60;;;6.28;;
44197;SDS011;30157;55.512;37.764;2023-03-25T05:48:44;7.18;;;6.03;;
44197;SDS011;30157;55.512;37.764;2023-03-25T05:51:14;8.95;;;6.95;;
44197;SDS011;30157;55.512;37.764;2023-03-25T05:53:42;8.57;;;6.28;;
44197;SDS011;30157;55.512;37.764;2023-03-25T05:56:12;9.73;;;6.13;;
44197;SDS011;30157;55.512;37.764;2023-03-25T05:58:38;8.65;;;6.40;;
44197;SDS011;30157;55.512;37.764;2023-03-25T06:01:03;8.63;;;5.45;;
44197;SDS011;30157;55.512;37.764;2023-03-25T06:03:29;10.57;;;6.50;;
44197;SDS011;30157;55.512;37.764;2023-03-25T06:05:58;12.15;;;6.60;;
44197;SDS011;30157;55.512;37.764;2023-03-25T06:08:25;10.85;;;7.43;;
44197;SDS011;30157;55.512;37.764;2023-03-25T06:10:54;12.13;;;7.40;;
44197;SDS011;30157;55.512;37.764;2023-03-25T06:13:23;11.52;;;7.25;;
44197;SDS011;30157;55.512;37.764;2023-03-25T06:15:49;9.80;;;6.93;;
44197;SDS011;30157;55.512;37.764;2023-03-25T06:18:22;8.57;;;6.43;;
44197;SDS011;30157;55.512;37.764;2023-03-25T06:20:51;10.35;;;6.65;;
44197;SDS011;30157;55.512;37.764;2023-03-25T06:23:19;8.75;;;6.57;;
44197;SDS011;30157;55.512;37.764;2023-03-25T06:25:50;11.25;;;7.32;;
44197;SDS011;30157;55.512;37.764;2023-03-25T06:28:19;10.73;;;6.60;;
44197;SDS011;30157;55.512;37.764;2023-03-25T06:30:50;10.43;;;7.50;;
44197;SDS011;30157;55.512;37.764;2023-03-25T06:33:16;9.63;;;6.95;;
44197;SDS011;30157;55.512;37.764;2023-03-25T06:35:51;9.85;;;6.80;;
44197;SDS011;30157;55.512;37.764;2023-03-25T06:38:17;9.80;;;6.65;;
44197;SDS011;30157;55.512;37.764;2023-03-25T06:41:07;10.32;;;6.68;;
44197;SDS011;30157;55.512;37.764;2023-03-25T06:43:33;9.63;;;7.03;;
44197;SDS011;30157;55.512;37.764;2023-03-25T06:46:25;9.90;;;7.07;;
44197;SDS011;30157;55.512;37.764;2023-03-25T06:49:14;11.82;;;7.65;;
44197;SDS011;30157;55.512;37.764;2023-03-25T06:51:40;10.57;;;7.93;;
44197;SDS011;30157;55.512;37.764;2023-03-25T06:54:06;12.05;;;7.03;;
44197;SDS011;30157;55.512;37.764;2023-03-25T06:56:32;12.35;;;7.65;;
44197;SDS011;30157;55.512;37.764;2023-03-25T06:58:58;13.13;;;7.53;;
44197;SDS011;30157;55.512;37.764;2023-03-25T07:01:23;11.20;;;7.20;;
44197;SDS011;30157;55.512;37.764;2023-03-25T07:03:49;10.40;;;8.10;;
44197;SDS011;30157;55.512;37.764;2023-03-25T07:06:16;12.02;;;8.07;;
44197;SDS011;30157;55.512;37.764;2023-03-25T07:08:44;12.43;;;8.27;;
44197;SDS011;30157;55.512;37.764;2023-03-25T07:11:11;12.98;;;8.25;;
44197;SDS011;30157;55.512;37.764;2023-03-25T07:13:38;12.25;;;8.10;;
44197;SDS011;30157;55.512;37.764;2023-03-25T07:16:04;10.57;;;7.20;;
44197;SDS011;30157;55.512;37.764;2023-03-25T07:18:31;11.63;;;8.73;;
44197;SDS011;30157;55.512;37.764;2023-03-25T07:20:57;14.95;;;8.68;;
44197;SDS011;30157;55.512;37.764;2023-03-25T07:23:23;12.45;;;8.57;;
44197;SDS011;30157;55.512;37.764;2023-03-25T07:25:49;13.73;;;8.70;;
44197;SDS011;30157;55.512;37.764;2023-03-25T07:28:16;12.77;;;8.82;;
44197;SDS011;30157;55.512;37.764;2023-03-25T07:30:45;14.77;;;9.38;;
44197;SDS011;30157;55.512;37.764;2023-03-25T07:33:10;14.95;;;9.45;;
44197;SDS011;30157;55.512;37.764;2023-03-25T07:35:36;15.68;;;10.20;;
44197;SDS011;30157;55.512;37.764;2023-03-25T07:38:03;18.80;;;10.70;;
44197;SDS011;30157;55.512;37.764;2023-03-25T07:40:29;12.98;;;8.88;;
44197;SDS011;30157;55.512;37.764;2023-03-25T07:42:54;15.57;;;9.68;;
44197;SDS011;30157;55.512;37.764;2023-03-25T07:45:22;14.43;;;10.30;;
44197;SDS011;30157;55.512;37.764;2023-03-25T07:47:50;13.85;;;9.00;;
44197;SDS011;30157;55.512;37.764;2023-03-25T07:50:20;13.88;;;10.18;;
44197;SDS011;30157;55.512;37.764;2023-03-25T07:52:47;15.02;;;9.88;;
44197;SDS011;30157;55.512;37.764;2023-03-25T07:55:13;17.15;;;10.75;;
44197;SDS011;30157;55.512;37.764;2023-03-25T07:57:41;16.88;;;10.80;;
44197;SDS011;30157;55.512;37.764;2023-03-25T08:00:07;13.70;;;10.07;;
44197;SDS011;30157;55.512;37.764;2023-03-25T08:02:38;15.98;;;10.55;;
44197;SDS011;30157;55.512;37.764;2023-03-25T08:05:05;17.27;;;11.63;;
44197;SDS011;30157;55.512;37.764;2023-03-25T08:07:32;12.20;;;9.88;;
44197;SDS011;30157;55.512;37.764;2023-03-25T08:09:58;19.10;;;11.85;;
44197;SDS011;30157;55.512;37.764;2023-03-25T08:12:23;17.17;;;12.40;;
44197;SDS011;30157;55.512;37.764;2023-03-25T08:14:49;16.42;;;12.35;;
44197;SDS011;30157;55.512;37.764;2023-03-25T08:17:15;18.17;;;11.82;;
44197;SDS011;30157;55.512;37.764;2023-03-25T08:19:41;17.00;;;12.35;;
44197;SDS011;30157;55.512;37.764;2023-03-25T08:22:10;17.33;;;12.32;;
44197;SDS011;30157;55.512;37.764;2023-03-25T08:24:36;20.23;;;13.88;;
44197;SDS011;30157;55.512;37.764;2023-03-25T08:27:01;19.23;;;12.75;;
44197;SDS011;30157;55.512;37.764;2023-03-25T08:29:27;18.23;;;11.95;;
44197;SDS011;30157;55.512;37.764;2023-03-25T08:31:54;17.90;;;12.93;;
44197;SDS011;30157;55.512;37.764;2023-03-25T08:34:21;19.55;;;13.25;;
44197;SDS011;30157;55.512;37.764;2023-03-25T08:36:47;17.75;;;12.95;;
44197;SDS011;30157;55.512;37.764;2023-03-25T08:39:13;21.75;;;12.98;;
44197;SDS011;30157;55.512;37.764;2023-03-25T08:41:42;18.25;;;13.20;;
44197;SDS011;30157;55.512;37.764;2023-03-25T08:44:08;18.52;;;13.55;;
44197;SDS011;30157;55.512;37.764;2023-03-25T08:46:34;20.70;;;14.75;;
44197;SDS011;30157;55.512;37.764;2023-03-25T08:49:01;21.25;;;14.57;;
44197;SDS011;30157;55.512;37.764;2023-03-25T08:51:27;21.25;;;14.60;;
44197;SDS011;30157;55.512;37.764;2023-03-25T08:53:52;22.85;;;16.42;;
44197;SDS011;30157;55.512;37.764;2023-03-25T08:56:18;29.65;;;20.80;;
44197;SDS011;30157;55.512;37.764;2023-03-25T08:58:44;26.05;;;18.63;;
44197;SDS011;30157;55.512;37.764;2023-03-25T09:01:09;25.02;;;17.20;;
44197;SDS011;30157;55.512;37.764;2023-03-25T09:03:36;30.42;;;21.70;;
44197;SDS011;30157;55.512;37.764;2023-03-25T09:06:03;25.77;;;18.02;;
44197;SDS011;30157;55.512;37.764;2023-03-25T09:08:30;34.53;;;22.63;;
44197;SDS011;30157;55.512;37.764;2023-03-25T09:10:58;30.05;;;18.25;;
44197;SDS011;30157;55.512;37.764;2023-03-25T09:13:24;26.77;;;19.40;;
44197;SDS011;30157;55.512;37.764;2023-03-25T09:15:50;29.58;;;19.85;;
44197;SDS011;30157;55.512;37.764;2023-03-25T09:18:15;29.48;;;19.00;;
44197;SDS011;30157;55.512;37.764;2023-03-25T09:20:41;29.50;;;20.05;;
44197;SDS011;30157;55.512;37.764;2023-03-25T09:23:07;26.63;;;18.98;;
44197;SDS011;30157;55.512;37.764;2023-03-25T09:25:34;30.55;;;19.60;;
44197;SDS011;30157;55.512;37.764;2023-03-25T09:27:59;28.75;;;19.83;;
44197;SDS011;30157;55.512;37.764;2023-03-25T09:30:25;32.03;;;20.75;;
44197;SDS011;30157;55.512;37.764;2023-03-25T09:32:51;30.45;;;20.75;;
44197;SDS011;30157;55.512;37.764;2023-03-25T09:35:17;31.52;;;21.80;;
44197;SDS011;30157;55.512;37.764;2023-03-25T09:37:42;33.45;;;23.08;;
44197;SDS011;30157;55.512;37.764;2023-03-25T09:40:09;30.65;;;21.80;;
44197;SDS011;30157;55.512;37.764;2023-03-25T09:42:47;28.67;;;20.50;;
44197;SDS011;30157;55.512;37.764;2023-03-25T09:50:38;30.65;;;21.73;;
44197;SDS011;30157;55.512;37.764;2023-03-25T09:53:10;32.33;;;19.90;;
44197;SDS011;30157;55.512;37.764;2023-03-25T09:55:47;29.75;;;19.45;;
44197;SDS011;30157;55.512;37.764;2023-03-25T10:00:47;23.83;;;16.17;;
44197;SDS011;30157;55.512;37.764;2023-03-25T10:03:22;23.23;;;16.38;;
44197;SDS011;30157;55.512;37.764;2023-03-25T10:25:17;25.20;;;16.08;;
44197;SDS011;30157;55.512;37.764;2023-03-25T10:27:50;28.45;;;18.88;;
44197;SDS011;30157;55.512;37.764;2023-03-25T10:30:17;27.77;;;19.00;;
44197;SDS011;30157;55.512;37.764;2023-03-25T10:32:47;28.35;;;16.02;;
44197;SDS011;30157;55.512;37.764;2023-03-25T10:37:57;21.63;;;15.85;;
44197;SDS011;30157;55.512;37.764;2023-03-25T10:40:48;26.05;;;17.55;;
44197;SDS011;30157;55.512;37.764;2023-03-25T10:46:17;27.27;;;18.83;;
44197;SDS011;30157;55.512;37.764;2023-03-25T10:48:45;25.08;;;17.85;;
44197;SDS011;30157;55.512;37.764;2023-03-25T10:51:14;23.80;;;17.13;;
44197;SDS011;30157;55.512;37.764;2023-03-25T10:53:44;24.65;;;17.98;;
44197;SDS011;30157;55.512;37.764;2023-03-25T10:56:14;24.65;;;16.75;;
44197;SDS011;30157;55.512;37.764;2023-03-25T10:58:44;26.27;;;16.88;;
44197;SDS011;30157;55.512;37.764;2023-03-25T11:01:15;23.67;;;17.15;;
44197;SDS011;30157;55.512;37.764;2023-03-25T11:03:49;24.20;;;17.00;;
44197;SDS011;30157;55.512;37.764;2023-03-25T11:06:26;21.00;;;15.23;;
44197;SDS011;30157;55.512;37.764;2023-03-25T11:08:55;23.38;;;16.05;;
44197;SDS011;30157;55.512;37.764;2023-03-25T11:11:42;25.00;;;16.17;;
44197;SDS011;30157;55.512;37.764;2023-03-25T11:14:09;22.40;;;16.10;;
44197;SDS011;30157;55.512;37.764;2023-03-25T11:16:42;25.27;;;16.77;;
44197;SDS011;30157;55.512;37.764;2023-03-25T11:19:23;23.00;;;16.15;;
44197;SDS011;30157;55.512;37.764;2023-03-25T11:21:53;22.55;;;16.13;;
44197;SDS011;30157;55.512;37.764;2023-03-25T11:24:26;24.23;;;17.00;;
44197;SDS011;30157;55.512;37.764;2023-03-25T11:26:55;25.67;;;17.20;;
44197;SDS011;30157;55.512;37.764;2023-03-25T11:29:22;26.27;;;16.60;;
44197;SDS011;30157;55.512;37.764;2023-03-25T11:32:06;23.30;;;15.30;;
44197;SDS011;30157;55.512;37.764;2023-03-25T11:34:37;21.65;;;14.40;;
44197;SDS011;30157;55.512;37.764;2023-03-25T11:37:13;24.33;;;14.93;;
44197;SDS011;30157;55.512;37.764;2023-03-25T11:39:40;22.75;;;16.45;;
44197;SDS011;30157;55.512;37.764;2023-03-25T11:44:56;21.23;;;15.45;;
44197;SDS011;30157;55.512;37.764;2023-03-25T11:47:41;27.65;;;18.48;;
44197;SDS011;30157;55.512;37.764;2023-03-25T11:50:16;22.05;;;15.50;;
44197;SDS011;30157;55.512;37.764;2023-03-25T11:52:46;20.15;;;14.35;;
44197;SDS011;30157;55.512;37.764;2023-03-25T11:55:15;20.13;;;13.75;;
44197;SDS011;30157;55.512;37.764;2023-03-25T11:57:44;20.58;;;15.20;;
44197;SDS011;30157;55.512;37.764;2023-03-25T12:02:47;17.95;;;13.32;;
44197;SDS011;30157;55.512;37.764;2023-03-25T12:05:27;20.92;;;15.35;;
44197;SDS011;30157;55.512;37.764;2023-03-25T12:07:59;19.75;;;14.30;;
44197;SDS011;30157;55.512;37.764;2023-03-25T12:10:52;20.65;;;15.32;;
44197;SDS011;30157;55.512;37.764;2023-03-25T12:16:13;21.33;;;15.57;;
44197;SDS011;30157;55.512;37.764;2023-03-25T12:29:28;20.20;;;15.35;;
44197;SDS011;30157;55.512;37.764;2023-03-25T12:32:18;22.88;;;15.27;;
44197;SDS011;30157;55.512;37.764;2023-03-25T12:34:52;22.08;;;15.38;;
44197;SDS011;30157;55.512;37.764;2023-03-25T13:07:31;22.25;;;15.30;;
44197;SDS011;30157;55.512;37.764;2023-03-25T13:12:45;22.13;;;14.07;;
44197;SDS011;30157;55.512;37.764;2023-03-25T13:15:17;23.48;;;16.00;;
44197;SDS011;30157;55.512;37.764;2023-03-25T13:20:47;21.95;;;16.95;;
44197;SDS011;30157;55.512;37.764;2023-03-25T13:23:23;23.77;;;16.33;;
44197;SDS011;30157;55.512;37.764;2023-03-25T13:28:50;22.63;;;15.70;;
44197;SDS011;30157;55.512;37.764;2023-03-25T13:31:26;25.17;;;17.77;;
44197;SDS011;30157;55.512;37.764;2023-03-25T13:36:41;22.60;;;14.77;;
44197;SDS011;30157;55.512;37.764;2023-03-25T13:39:18;21.95;;;15.55;;
44197;SDS011;30157;55.512;37.764;2023-03-25T13:41:58;23.15;;;14.82;;
44197;SDS011;30157;55.512;37.764;2023-03-25T13:44:37;19.88;;;14.30;;
44197;SDS011;30157;55.512;37.764;2023-03-25T13:47:16;22.65;;;16.77;;
44197;SDS011;30157;55.512;37.764;2023-03-25T13:49:49;22.20;;;14.85;;
44197;SDS011;30157;55.512;37.764;2023-03-25T13:52:20;19.73;;;14.55;;
44197;SDS011;30157;55.512;37.764;2023-03-25T13:54:57;21.88;;;16.00;;
44197;SDS011;30157;55.512;37.764;2023-03-25T14:00:22;19.52;;;14.25;;
44197;SDS011;30157;55.512;37.764;2023-03-25T14:03:24;20.25;;;14.50;;
44197;SDS011;30157;55.512;37.764;2023-03-25T14:06:30;20.70;;;14.60;;
44197;SDS011;30157;55.512;37.764;2023-03-25T14:17:43;19.58;;;13.32;;
44197;SDS011;30157;55.512;37.764;2023-03-25T14:20:16;19.75;;;14.88;;
44197;SDS011;30157;55.512;37.764;2023-03-25T14:22:48;18.63;;;14.05;;
44197;SDS011;30157;55.512;37.764;2023-03-25T14:25:26;22.00;;;13.82;;
44197;SDS011;30157;55.512;37.764;2023-03-25T14:27:58;20.65;;;15.63;;
44197;SDS011;30157;55.512;37.764;2023-03-25T14:30:27;19.00;;;14.52;;
44197;SDS011;30157;55.512;37.764;2023-03-25T14:32:55;19.45;;;14.23;;
44197;SDS011;30157;55.512;37.764;2023-03-25T14:43:20;20.17;;;14.82;;
44197;SDS011;30157;55.512;37.764;2023-03-25T14:48:36;19.20;;;14.68;;
44197;SDS011;30157;55.512;37.764;2023-03-25T14:56:23;20.35;;;16.40;;
44197;SDS011;30157;55.512;37.764;2023-03-25T14:58:56;21.13;;;16.90;;
44197;SDS011;30157;55.512;37.764;2023-03-25T15:01:29;19.08;;;14.77;;
44197;SDS011;30157;55.512;37.764;2023-03-25T15:04:41;20.98;;;16.13;;
44197;SDS011;30157;55.512;37.764;2023-03-25T15:06:59;21.95;;;16.00;;
44197;SDS011;30157;55.512;37.764;2023-03-25T15:09:26;22.05;;;16.00;;
44197;SDS011;30157;55.512;37.764;2023-03-25T15:11:56;18.65;;;13.65;;
44197;SDS011;30157;55.512;37.764;2023-03-25T15:14:27;19.45;;;14.43;;
44197;SDS011;30157;55.512;37.764;2023-03-25T15:17:00;17.30;;;12.45;;
44197;SDS011;30157;55.512;37.764;2023-03-25T15:20:10;19.67;;;13.25;;
44197;SDS011;30157;55.512;37.764;2023-03-25T15:22:33;23.45;;;15.80;;
44197;SDS011;30157;55.512;37.764;2023-03-25T15:25:00;19.55;;;14.85;;
44197;SDS011;30157;55.512;37.764;2023-03-25T15:30:48;18.35;;;13.75;;
44197;SDS011;30157;55.512;37.764;2023-03-25T15:47:20;16.35;;;12.75;;
44197;SDS011;30157;55.512;37.764;2023-03-25T15:55:27;16.70;;;12.52;;
44197;SDS011;30157;55.512;37.764;2023-03-25T15:58:02;17.00;;;12.93;;
44197;SDS011;30157;55.512;37.764;2023-03-25T16:00:31;17.45;;;12.85;;
44197;SDS011;30157;55.512;37.764;2023-03-25T16:05:28;21.17;;;15.48;;
44197;SDS011;30157;55.512;37.764;2023-03-25T16:07:56;21.23;;;14.10;;
44197;SDS011;30157;55.512;37.764;2023-03-25T16:10:29;19.05;;;14.25;;
44197;SDS011;30157;55.512;37.764;2023-03-25T16:13:04;19.90;;;14.25;;
44197;SDS011;30157;55.512;37.764;2023-03-25T16:15:34;19.25;;;13.40;;
44197;SDS011;30157;55.512;37.764;2023-03-25T16:18:02;18.20;;;13.35;;
44197;SDS011;30157;55.512;37.764;2023-03-25T16:20:33;19.85;;;13.82;;
44197;SDS011;30157;55.512;37.764;2023-03-25T16:23:00;17.05;;;12.95;;
44197;SDS011;30157;55.512;37.764;2023-03-25T16:27:54;14.73;;;11.60;;
44197;SDS011;30157;55.512;37.764;2023-03-25T16:35:38;15.55;;;13.15;;
44197;SDS011;30157;55.512;37.764;2023-03-25T16:38:20;17.05;;;12.93;;
44197;SDS011;30157;55.512;37.764;2023-03-25T16:40:47;16.08;;;11.73;;
44197;SDS011;30157;55.512;37.764;2023-03-25T16:43:21;16.98;;;12.10;;
44197;SDS011;30157;55.512;37.764;2023-03-25T16:45:49;14.65;;;11.45;;
44197;SDS011;30157;55.512;37.764;2023-03-25T16:48:17;15.18;;;11.70;;
44197;SDS011;30157;55.512;37.764;2023-03-25T16:50:48;16.67;;;12.05;;
44197;SDS011;30157;55.512;37.764;2023-03-25T16:53:17;13.80;;;11.30;;
44197;SDS011;30157;55.512;37.764;2023-03-25T16:55:47;16.30;;;12.50;;
44197;SDS011;30157;55.512;37.764;2023-03-25T16:58:24;14.30;;;10.53;;
44197;SDS011;30157;55.512;37.764;2023-03-25T17:00:52;19.65;;;14.07;;
44197;SDS011;30157;55.512;37.764;2023-03-25T17:03:39;20.25;;;14.02;;
44197;SDS011;30157;55.512;37.764;2023-03-25T17:08:52;19.15;;;14.43;;
44197;SDS011;30157;55.512;37.764;2023-03-25T17:11:27;19.67;;;14.45;;
44197;SDS011;30157;55.512;37.764;2023-03-25T17:13:59;16.45;;;12.93;;
44197;SDS011;30157;55.512;37.764;2023-03-25T17:16:30;20.20;;;14.65;;
44197;SDS011;30157;55.512;37.764;2023-03-25T17:18:57;17.25;;;13.05;;
44197;SDS011;30157;55.512;37.764;2023-03-25T17:21:26;23.50;;;14.98;;
44197;SDS011;30157;55.512;37.764;2023-03-25T17:23:58;19.80;;;14.73;;
44197;SDS011;30157;55.512;37.764;2023-03-25T17:26:55;22.88;;;16.30;;
44197;SDS011;30157;55.512;37.764;2023-03-25T17:29:29;21.27;;;15.30;;
44197;SDS011;30157;55.512;37.764;2023-03-25T17:31:56;20.40;;;15.88;;
44197;SDS011;30157;55.512;37.764;2023-03-25T17:34:24;19.27;;;15.20;;
44197;SDS011;30157;55.512;37.764;2023-03-25T17:36:57;19.48;;;14.20;;
44197;SDS011;30157;55.512;37.764;2023-03-25T17:39:31;19.10;;;14.90;;
44197;SDS011;30157;55.512;37.764;2023-03-25T17:44:34;20.20;;;15.68;;
44197;SDS011;30157;55.512;37.764;2023-03-25T17:47:02;22.30;;;15.38;;
44197;SDS011;30157;55.512;37.764;2023-03-25T17:49:29;20.02;;;15.20;;
44197;SDS011;30157;55.512;37.764;2023-03-25T17:51:54;18.40;;;13.65;;
44197;SDS011;30157;55.512;37.764;2023-03-25T17:54:22;20.85;;;14.98;;
44197;SDS011;30157;55.512;37.764;2023-03-25T17:56:48;17.17;;;13.35;;